Holy Cross Airport
PAHC : now visible

Airfield :











YOU CAN JOIN US ON...

 
LOGIN :

Register | Disclaimer

   EN    FR    IT 

 









Legend :    VFR   Marginal VFR   IFR   Intensive IFR   Very Intensive IFR
Visi :
Ceiling :
>= 8 km
>= 3000ft
5 to 8 km
1000 to 3000 ft
1500m to 5 km
500 to 1000 ft
800 to 1500m
200 to 500 ft
< 800m
< 200 ft
Symbols :   Thunderstorms  Fog  Heavy snow  Heavy precipitations  Wind > 20 kt






- Airport Elevation : 70 ft
- IATA code : HCR


PAHC - Holy Cross

CURRENT METAR :
  • 030056Z AUTO 15004KT 10SM -RA SCT025 SCT032 BKN090 15/11 A2954 RMK AO2 RAB43 SLP006 P0000 T01500106

EXPIRED METARs :
  • 022356Z AUTO 07004KT 10SM SCT095 17/11 A2953 RMK AO2 RAB07E42 SLP002 P0000 60000 T01670106 10189 20144 55003
  • 022256Z AUTO 03006KT 10SM SCT110 17/09 A2953 RMK AO2 SLP001 T01720094

TAF N/A
PAZA FIR / North America



MET'MAP, your aeronautical weather chart ! - Copyright ORBIFLY December 2007 - Disclaimer

ORBIFLY MET'MAP TEAM :

Programming & Development : Alexandra Zaïnal
Concept & original design : Baudouin d'Aumeries
Assistance for programming : Marc-Olivier Méhu
Technical & hardware support : Manuel Goepfert

Contact : metmap@orbifly.com




SOURCES & CREDITS :

   NOAA       Earth
Advisory